Terminal Aerodrome Forecast
Issued by NWS Twin Cities, MN

Home | Current Version | Previous Version | Graphics & Text | Print | Product List | Glossary On
Versions: 1 2 3 4 5 6 7 8 9 10 11 12 13 14 15 16 17 18 19 20 21 22 23 24 25
000
FTUS43 KMPX 201100
TAFSTC
TAF
KSTC 201120Z 2012/2112 VRB02KT 3SM BR SCT002
      TEMPO 2012/2013 1SM BR BKN002
     FM201300 13004KT P6SM SCT250
     FM210100 12010KT P6SM BKN070
     FM210400 14007KT 6SM BR VCSH SCT006 OVC050
      TEMPO 2106/2109 4SM TSRA OVC050CB=

USA.gov is the U.S. government's official web portal to all federal, state and local government web resources and services.